createdAt,value
2023-11-19T00:00:30.657Z,12.10
2023-11-19T00:02:59.010Z,12.10
2023-11-19T00:05:28.010Z,12.10
2023-11-19T00:07:56.334Z,12.10
2023-11-19T00:10:24.376Z,12.00
2023-11-19T00:12:52.632Z,11.90
2023-11-19T00:15:21.253Z,11.90
2023-11-19T00:17:50.773Z,11.90
2023-11-19T00:20:21.088Z,11.80
2023-11-19T00:22:53.284Z,11.80
2023-11-19T00:25:26.948Z,11.80
2023-11-19T00:27:58.566Z,11.80
2023-11-19T00:30:26.897Z,11.70
2023-11-19T00:32:55.374Z,11.70
2023-11-19T00:35:24.088Z,11.70
2023-11-19T00:37:52.948Z,11.60
2023-11-19T00:40:24.176Z,11.60
2023-11-19T00:42:52.847Z,11.60
2023-11-19T00:45:22.247Z,11.50
2023-11-19T00:47:50.683Z,11.50
2023-11-19T00:50:19.102Z,11.50
2023-11-19T00:52:48.902Z,11.40
2023-11-19T00:55:17.131Z,11.40
2023-11-19T00:57:45.390Z,11.40
2023-11-19T01:00:21.028Z,11.40
2023-11-19T01:02:52.550Z,11.40
2023-11-19T01:05:24.432Z,11.40
2023-11-19T01:07:55.979Z,11.40
2023-11-19T01:10:24.988Z,11.40
2023-11-19T01:12:54.044Z,11.40
2023-11-19T01:15:22.859Z,11.40
2023-11-19T01:17:53.815Z,11.40
2023-11-19T01:20:22.987Z,11.40
2023-11-19T01:22:51.740Z,11.40
2023-11-19T01:25:20.628Z,11.40
2023-11-19T01:27:49.076Z,11.30
2023-11-19T01:30:17.587Z,11.30
2023-11-19T01:32:45.898Z,11.30
2023-11-19T01:35:14.389Z,11.30
2023-11-19T01:37:42.512Z,11.30
2023-11-19T01:40:13.321Z,11.30
2023-11-19T01:42:42.506Z,11.30
2023-11-19T01:45:11.878Z,11.30
2023-11-19T01:47:40.609Z,11.30
2023-11-19T01:50:10.664Z,11.20
2023-11-19T01:52:41.005Z,11.20
2023-11-19T01:55:12.784Z,11.20
2023-11-19T01:57:43.327Z,11.20
2023-11-19T02:00:14.147Z,11.20
2023-11-19T02:02:43.801Z,11.20
2023-11-19T02:05:15.226Z,11.20
2023-11-19T02:07:43.536Z,11.10
2023-11-19T02:10:15.213Z,11.10
2023-11-19T02:12:44.661Z,11.10
2023-11-19T02:15:13.098Z,11.10
2023-11-19T02:17:41.626Z,11.10
2023-11-19T02:20:13.658Z,11.00
2023-11-19T02:22:42.452Z,11.00
2023-11-19T02:25:27.689Z,11.00
2023-11-19T02:28:02.224Z,11.00
2023-11-19T02:30:30.940Z,11.00
2023-11-19T02:33:00.310Z,11.00
2023-11-19T02:35:29.370Z,11.00
2023-11-19T02:37:57.731Z,11.00
2023-11-19T02:40:26.440Z,11.00
2023-11-19T02:42:57.203Z,11.10
2023-11-19T02:45:27.321Z,11.20
2023-11-19T02:47:56.746Z,11.20
2023-11-19T02:50:28.490Z,11.20
2023-11-19T02:52:58.395Z,11.30
2023-11-19T02:55:29.808Z,11.20
2023-11-19T02:58:01.133Z,11.30
2023-11-19T03:00:34.302Z,11.30
2023-11-19T03:03:12.173Z,11.30
2023-11-19T03:05:42.455Z,11.20
2023-11-19T03:10:51.386Z,11.30
2023-11-19T03:13:23.450Z,11.30
2023-11-19T03:15:51.955Z,11.30
2023-11-19T03:18:20.154Z,11.30
2023-11-19T03:20:48.908Z,11.30
2023-11-19T03:23:19.988Z,11.30
2023-11-19T03:25:49.142Z,11.20
2023-11-19T03:28:17.411Z,11.20
2023-11-19T03:30:45.678Z,11.30
2023-11-19T03:33:14.044Z,11.20
2023-11-19T03:35:42.687Z,11.20
2023-11-19T03:38:10.848Z,11.20
2023-11-19T03:40:42.371Z,11.20
2023-11-19T03:43:11.284Z,11.10
2023-11-19T03:45:39.302Z,11.10
2023-11-19T03:48:09.560Z,11.10
2023-11-19T03:50:38.065Z,11.10
2023-11-19T03:53:06.211Z,11.10
2023-11-19T03:55:34.610Z,11.10
2023-11-19T03:58:02.924Z,11.00
2023-11-19T04:00:31.177Z,11.00
2023-11-19T04:03:00.155Z,11.00
2023-11-19T04:05:28.390Z,10.90
2023-11-19T04:07:56.395Z,10.90
2023-11-19T04:10:25.444Z,10.90
2023-11-19T04:12:53.506Z,10.90
2023-11-19T04:15:21.691Z,10.90
2023-11-19T04:17:50.552Z,10.90
2023-11-19T04:20:18.722Z,10.80
2023-11-19T04:22:47.513Z,10.80
2023-11-19T04:25:16.709Z,10.80
2023-11-19T04:27:44.865Z,10.80
2023-11-19T04:30:13.712Z,10.80
2023-11-19T04:32:41.904Z,10.80
2023-11-19T04:35:10.943Z,10.80
2023-11-19T04:37:40.633Z,10.80
2023-11-19T04:40:09.475Z,10.70
2023-11-19T04:42:37.675Z,10.70
2023-11-19T04:45:08.435Z,10.70
2023-11-19T04:47:36.846Z,10.70
2023-11-19T04:50:05.509Z,10.70
2023-11-19T04:52:33.905Z,10.70
2023-11-19T04:55:02.170Z,10.70
2023-11-19T04:57:30.354Z,10.80
2023-11-19T04:59:58.489Z,10.70
2023-11-19T05:02:26.709Z,10.70
2023-11-19T05:04:55.149Z,10.70
2023-11-19T05:07:23.720Z,10.70
2023-11-19T05:09:51.762Z,10.70
2023-11-19T05:12:20.053Z,10.70
2023-11-19T05:14:51.366Z,10.60
2023-11-19T05:17:20.544Z,10.70
2023-11-19T05:19:49.927Z,10.70
2023-11-19T05:22:18.709Z,10.70
2023-11-19T05:24:46.738Z,10.70
2023-11-19T05:27:16.001Z,10.70
2023-11-19T05:29:45.253Z,10.70
2023-11-19T05:32:13.340Z,10.70
2023-11-19T05:37:12.932Z,10.70
2023-11-19T05:39:41.205Z,10.70
2023-11-19T05:42:09.496Z,10.70
2023-11-19T05:44:41.213Z,10.70
2023-11-19T05:47:10.087Z,10.70
2023-11-19T05:49:38.682Z,10.70
2023-11-19T05:52:09.293Z,10.70
2023-11-19T05:54:39.474Z,10.70
2023-11-19T05:57:10.708Z,10.70
2023-11-19T05:59:39.109Z,10.70
2023-11-19T06:02:07.118Z,10.80
2023-11-19T06:04:35.458Z,10.80
2023-11-19T06:07:03.801Z,10.90
2023-11-19T06:09:35.655Z,11.00
2023-11-19T06:12:04.541Z,11.10
2023-11-19T06:14:32.552Z,11.30
2023-11-19T06:17:01.565Z,11.40
2023-11-19T06:19:31.008Z,11.50
2023-11-19T06:21:59.932Z,11.70
2023-11-19T06:24:28.225Z,11.80
2023-11-19T06:26:56.760Z,12.00
2023-11-19T06:29:25.226Z,12.10
2023-11-19T06:31:53.369Z,12.30
2023-11-19T06:34:21.645Z,12.40
2023-11-19T06:36:49.991Z,12.60
2023-11-19T06:39:19.304Z,12.80
2023-11-19T06:41:48.274Z,12.90
2023-11-19T06:44:16.677Z,13.10
2023-11-19T06:46:45.045Z,13.20
2023-11-19T06:49:13.421Z,13.40
2023-11-19T06:51:45.605Z,13.60
2023-11-19T06:54:14.191Z,13.80
2023-11-19T06:56:43.224Z,14.00
2023-11-19T06:59:11.939Z,14.10
2023-11-19T07:01:40.159Z,14.30
2023-11-19T07:04:11.331Z,14.50
2023-11-19T07:06:39.743Z,14.60
2023-11-19T07:09:11.843Z,14.80
2023-11-19T07:11:43.983Z,15.00
2023-11-19T07:14:13.118Z,15.20
2023-11-19T07:16:41.147Z,15.50
2023-11-19T07:19:09.730Z,15.70
2023-11-19T07:21:41.044Z,16.00
2023-11-19T07:24:09.272Z,16.20
2023-11-19T07:26:38.911Z,16.40
2023-11-19T07:29:09.206Z,16.60
2023-11-19T07:31:38.564Z,16.90
2023-11-19T07:34:08.230Z,17.00
2023-11-19T07:36:37.805Z,17.20
2023-11-19T07:39:06.567Z,17.40
2023-11-19T07:41:35.179Z,17.50
2023-11-19T07:44:08.435Z,17.10
2023-11-19T07:46:36.846Z,16.80
2023-11-19T07:49:05.130Z,16.80
2023-11-19T07:51:33.459Z,16.80
2023-11-19T07:54:01.478Z,16.80
2023-11-19T07:56:30.189Z,17.10
2023-11-19T07:58:58.252Z,17.40
2023-11-19T08:01:26.567Z,17.60
2023-11-19T08:06:25.707Z,18.30
2023-11-19T08:08:53.789Z,18.60
2023-11-19T08:11:22.263Z,18.80
2023-11-19T08:13:50.470Z,19.10
2023-11-19T08:16:18.856Z,19.40
2023-11-19T08:18:46.968Z,19.70
2023-11-19T08:21:15.337Z,20.00
2023-11-19T08:23:43.457Z,20.20
2023-11-19T08:26:11.939Z,20.60
2023-11-19T08:28:40.246Z,20.60
2023-11-19T08:31:08.607Z,20.90
2023-11-19T08:33:37.429Z,21.10
2023-11-19T08:36:06.254Z,21.10
2023-11-19T08:38:34.325Z,21.00
2023-11-19T08:41:02.809Z,20.90
2023-11-19T08:43:31.325Z,21.10
2023-11-19T08:45:59.574Z,21.40
2023-11-19T08:48:28.141Z,21.90
2023-11-19T08:50:56.598Z,22.20
2023-11-19T08:53:25.298Z,22.00
2023-11-19T08:55:54.236Z,22.30
2023-11-19T08:58:22.327Z,22.60
2023-11-19T09:00:50.580Z,22.60
2023-11-19T09:03:19.249Z,22.50
2023-11-19T09:05:47.578Z,22.30
2023-11-19T09:08:15.596Z,22.50
2023-11-19T09:10:43.882Z,22.50
2023-11-19T09:13:11.891Z,22.80
2023-11-19T09:15:40.074Z,23.10
2023-11-19T09:18:08.274Z,23.60
2023-11-19T09:20:40.558Z,23.80
2023-11-19T09:23:10.694Z,24.20
2023-11-19T09:28:10.573Z,25.10
2023-11-19T09:30:38.874Z,25.60
2023-11-19T09:33:07.475Z,25.90
2023-11-19T09:35:35.624Z,26.00
2023-11-19T09:38:05.661Z,26.00
2023-11-19T09:40:34.406Z,25.80
2023-11-19T09:43:02.717Z,25.70
2023-11-19T09:45:34.392Z,25.70
2023-11-19T09:48:04.261Z,26.00
2023-11-19T09:50:33.598Z,26.20
2023-11-19T09:53:01.805Z,25.90
2023-11-19T09:55:30.019Z,25.50
2023-11-19T09:58:01.983Z,25.80
2023-11-19T10:00:31.720Z,26.30
2023-11-19T10:03:02.196Z,27.00
2023-11-19T10:05:30.463Z,27.80
2023-11-19T10:07:58.940Z,28.00
2023-11-19T10:10:27.122Z,27.50
2023-11-19T10:12:58.374Z,28.10
2023-11-19T10:15:28.772Z,27.80
2023-11-19T10:18:00.305Z,28.60
2023-11-19T10:20:28.777Z,28.40
2023-11-19T10:22:57.581Z,29.30
2023-11-19T10:25:30.827Z,29.50
2023-11-19T10:28:02.689Z,30.50
2023-11-19T10:30:32.450Z,30.40
2023-11-19T10:33:10.511Z,30.90
2023-11-19T10:36:02.882Z,30.70
2023-11-19T10:38:32.325Z,30.70
2023-11-19T10:41:00.665Z,30.50
2023-11-19T10:43:29.783Z,31.40
2023-11-19T10:46:14.858Z,32.30
2023-11-19T10:48:43.422Z,33.00
2023-11-19T10:51:23.206Z,33.40
2023-11-19T10:53:54.621Z,32.90
2023-11-19T10:56:29.975Z,33.50
2023-11-19T10:59:01.004Z,33.30
2023-11-19T11:01:39.971Z,32.70
2023-11-19T11:04:14.575Z,31.90
2023-11-19T11:06:42.921Z,31.70
2023-11-19T11:09:14.857Z,31.30
2023-11-19T11:11:45.113Z,31.80
2023-11-19T11:14:18.061Z,31.60
2023-11-19T11:16:48.001Z,32.60
2023-11-19T11:19:18.657Z,32.90
2023-11-19T11:21:52.076Z,33.40
2023-11-19T11:24:43.046Z,34.30
2023-11-19T11:27:31.929Z,34.80
2023-11-19T11:30:25.147Z,34.40
2023-11-19T11:33:28.289Z,34.80
2023-11-19T11:36:15.535Z,34.60
2023-11-19T11:38:49.692Z,35.50
2023-11-19T11:41:27.840Z,35.10
2023-11-19T11:43:59.241Z,36.40
2023-11-19T11:46:37.399Z,37.20
2023-11-19T11:49:10.170Z,37.90
2023-11-19T11:51:46.752Z,37.20
2023-11-19T11:54:22.841Z,35.00
2023-11-19T11:57:16.179Z,35.30
2023-11-19T11:59:53.046Z,35.70
2023-11-19T12:02:24.885Z,34.90
2023-11-19T12:04:55.412Z,35.10
2023-11-19T12:07:34.882Z,35.90
2023-11-19T12:10:17.735Z,35.80
2023-11-19T12:12:46.910Z,36.40
2023-11-19T12:15:16.706Z,36.50
2023-11-19T12:17:53.161Z,37.00
2023-11-19T12:22:57.261Z,37.60
2023-11-19T12:25:25.149Z,38.10
2023-11-19T12:27:55.939Z,37.70
2023-11-19T12:30:27.628Z,37.80
2023-11-19T12:32:56.581Z,38.00
2023-11-19T12:35:25.202Z,37.00
2023-11-19T12:37:54.490Z,37.50
2023-11-19T12:40:25.024Z,38.30
2023-11-19T12:42:55.455Z,39.10
2023-11-19T12:45:25.949Z,38.60
2023-11-19T12:48:07.612Z,38.50
2023-11-19T12:51:02.912Z,39.40
2023-11-19T12:53:48.511Z,38.50
2023-11-19T12:56:19.006Z,39.30
2023-11-19T12:58:47.104Z,39.20
2023-11-19T13:01:19.635Z,39.30
2023-11-19T13:03:48.348Z,37.20
2023-11-19T13:06:17.354Z,37.20
2023-11-19T13:08:48.235Z,37.70
2023-11-19T13:11:16.182Z,38.00
2023-11-19T13:14:06.858Z,37.70
2023-11-19T13:16:35.111Z,38.50
2023-11-19T13:19:04.245Z,39.00
2023-11-19T13:21:32.768Z,39.90
2023-11-19T13:24:00.512Z,39.90
2023-11-19T13:26:28.566Z,39.90
2023-11-19T13:28:56.483Z,40.10
2023-11-19T13:31:24.507Z,39.90
2023-11-19T13:33:52.361Z,38.60
2023-11-19T13:36:21.077Z,37.70
2023-11-19T13:38:49.267Z,37.60
2023-11-19T13:41:17.170Z,38.20
2023-11-19T13:43:45.737Z,37.80
2023-11-19T13:46:14.076Z,37.30
2023-11-19T13:48:41.916Z,36.90
2023-11-19T13:51:11.638Z,36.00
2023-11-19T13:56:10.568Z,35.60
2023-11-19T13:58:38.444Z,34.60
2023-11-19T14:01:06.684Z,32.90
2023-11-19T14:03:35.253Z,31.10
2023-11-19T14:06:04.049Z,29.80
2023-11-19T14:08:32.134Z,28.50
2023-11-19T14:11:00.284Z,27.50
2023-11-19T14:13:28.232Z,26.70
2023-11-19T14:15:59.300Z,26.20
2023-11-19T14:18:27.434Z,25.50
2023-11-19T14:20:55.655Z,25.00
2023-11-19T14:23:23.595Z,24.70
2023-11-19T14:25:51.529Z,24.40
2023-11-19T14:28:19.373Z,24.20
2023-11-19T14:30:49.386Z,24.10
2023-11-19T14:33:17.336Z,24.00
2023-11-19T14:35:45.201Z,23.90
2023-11-19T14:38:13.103Z,23.70
2023-11-19T14:40:43.039Z,23.60
2023-11-19T14:43:12.016Z,23.50
2023-11-19T14:45:45.558Z,23.30
2023-11-19T14:48:21.550Z,23.10
2023-11-19T14:50:49.707Z,23.00
2023-11-19T14:53:17.485Z,22.90
2023-11-19T14:55:45.555Z,22.90
2023-11-19T14:58:17.294Z,22.90
2023-11-19T15:00:46.728Z,22.80
2023-11-19T15:03:17.747Z,22.80
2023-11-19T15:05:46.513Z,22.70
2023-11-19T15:08:15.102Z,22.60
2023-11-19T15:10:44.810Z,22.50
2023-11-19T15:13:12.763Z,22.40
2023-11-19T15:15:40.860Z,22.30
2023-11-19T15:18:09.058Z,22.10
2023-11-19T15:20:37.844Z,22.00
2023-11-19T15:23:07.913Z,21.90
2023-11-19T15:25:38.058Z,21.80
2023-11-19T15:28:05.880Z,21.80
2023-11-19T15:30:33.796Z,21.70
2023-11-19T15:33:01.624Z,21.60
2023-11-19T15:35:29.763Z,21.40
2023-11-19T15:37:58.209Z,21.30
2023-11-19T15:40:26.118Z,21.20
2023-11-19T15:42:56.248Z,21.00
2023-11-19T15:45:24.189Z,20.80
2023-11-19T15:47:52.404Z,20.60
2023-11-19T15:50:20.342Z,20.40
2023-11-19T15:52:49.670Z,20.20
2023-11-19T15:55:18.298Z,20.10
2023-11-19T15:57:46.158Z,20.00
2023-11-19T16:00:18.315Z,19.90
2023-11-19T16:02:46.566Z,19.70
2023-11-19T16:05:15.446Z,19.60
2023-11-19T16:07:46.580Z,19.40
2023-11-19T16:10:14.684Z,19.30
2023-11-19T16:12:42.450Z,19.20
2023-11-19T16:15:11.448Z,19.20
2023-11-19T16:17:40.412Z,19.00
2023-11-19T16:20:12.364Z,18.90
2023-11-19T16:22:40.723Z,18.90
2023-11-19T16:25:09.378Z,18.70
2023-11-19T16:27:37.690Z,18.70
2023-11-19T16:30:06.916Z,18.60
2023-11-19T16:32:36.252Z,18.50
2023-11-19T16:35:04.448Z,18.50
2023-11-19T16:37:32.424Z,18.40
2023-11-19T16:40:00.255Z,18.30
2023-11-19T16:42:28.246Z,18.20
2023-11-19T16:44:59.027Z,18.10
2023-11-19T16:47:27.195Z,18.10
2023-11-19T16:49:55.938Z,18.10
2023-11-19T16:52:24.019Z,18.00
2023-11-19T16:54:52.170Z,17.90
2023-11-19T16:57:22.441Z,17.90
2023-11-19T16:59:56.796Z,17.90
2023-11-19T17:02:26.411Z,17.80
2023-11-19T17:04:54.826Z,17.80
2023-11-19T17:07:23.095Z,17.70
2023-11-19T17:09:50.868Z,17.70
2023-11-19T17:12:21.789Z,17.60
2023-11-19T17:15:03.479Z,17.50
2023-11-19T17:17:40.857Z,17.50
2023-11-19T17:20:10.982Z,17.50
2023-11-19T17:22:42.146Z,17.40
2023-11-19T17:25:13.302Z,17.30
2023-11-19T17:27:41.758Z,17.20
2023-11-19T17:30:10.666Z,17.20
2023-11-19T17:32:39.114Z,17.10
2023-11-19T17:35:08.344Z,17.10
2023-11-19T17:37:36.411Z,17.00
2023-11-19T17:40:05.140Z,16.90
2023-11-19T17:42:33.058Z,16.80
2023-11-19T17:45:02.286Z,16.80
2023-11-19T17:47:30.570Z,16.70
2023-11-19T17:49:58.496Z,16.70
2023-11-19T17:52:26.486Z,16.60
2023-11-19T17:54:57.486Z,16.50
2023-11-19T17:57:26.138Z,16.50
2023-11-19T17:59:54.083Z,16.50
2023-11-19T18:02:42.939Z,16.40
2023-11-19T18:05:11.136Z,16.40
2023-11-19T18:07:45.128Z,16.30
2023-11-19T18:10:13.353Z,16.30
2023-11-19T18:12:41.644Z,16.30
2023-11-19T18:15:14.752Z,16.20
2023-11-19T18:17:43.498Z,16.20
2023-11-19T18:20:16.487Z,16.20
2023-11-19T18:22:49.598Z,16.10
2023-11-19T18:25:19.721Z,16.00
2023-11-19T18:27:48.462Z,16.00
2023-11-19T18:30:17.577Z,16.00
2023-11-19T18:32:46.674Z,15.90
2023-11-19T18:35:18.068Z,15.90
2023-11-19T18:37:49.316Z,15.90
2023-11-19T18:40:22.150Z,15.80
2023-11-19T18:42:53.671Z,15.80
2023-11-19T18:45:24.017Z,15.80
2023-11-19T18:47:53.232Z,15.70
2023-11-19T18:50:22.688Z,15.70
2023-11-19T18:52:50.705Z,15.70
2023-11-19T18:55:18.975Z,15.70
2023-11-19T18:57:48.275Z,15.60
2023-11-19T19:00:18.211Z,15.60
2023-11-19T19:05:21.185Z,15.60
2023-11-19T19:07:49.201Z,15.50
2023-11-19T19:10:17.230Z,15.50
2023-11-19T19:12:45.804Z,15.50
2023-11-19T19:17:46.247Z,15.40
2023-11-19T19:20:14.574Z,15.40
2023-11-19T19:22:44.234Z,15.40
2023-11-19T19:25:12.323Z,15.40
2023-11-19T19:27:40.438Z,15.30
2023-11-19T19:30:10.377Z,15.30
2023-11-19T19:32:40.678Z,15.30
2023-11-19T19:35:09.718Z,15.30
2023-11-19T19:37:38.038Z,15.20
2023-11-19T19:40:27.043Z,15.20
2023-11-19T19:42:55.241Z,15.20
2023-11-19T19:45:24.105Z,15.10
2023-11-19T19:47:52.207Z,15.10
2023-11-19T19:50:23.183Z,15.00
2023-11-19T19:52:52.142Z,15.00
2023-11-19T19:55:22.660Z,15.00
2023-11-19T19:57:51.052Z,15.00
2023-11-19T20:00:20.893Z,14.90
2023-11-19T20:02:51.200Z,15.00
2023-11-19T20:05:21.316Z,14.90
2023-11-19T20:07:49.722Z,14.90
2023-11-19T20:10:17.928Z,14.90
2023-11-19T20:12:45.839Z,14.90
2023-11-19T20:15:16.010Z,14.90
2023-11-19T20:17:44.175Z,14.90
2023-11-19T20:20:12.742Z,14.80
2023-11-19T20:22:41.525Z,14.80
2023-11-19T20:25:11.432Z,14.80
2023-11-19T20:27:39.801Z,14.80
2023-11-19T20:30:08.485Z,14.80
2023-11-19T20:32:38.148Z,14.80
2023-11-19T20:35:10.680Z,14.70
2023-11-19T20:37:38.866Z,14.70
2023-11-19T20:40:07.581Z,14.70
2023-11-19T20:42:39.965Z,14.70
2023-11-19T20:45:12.256Z,14.60
2023-11-19T20:47:40.735Z,14.60
2023-11-19T20:50:11.601Z,14.60
2023-11-19T20:52:42.443Z,14.50
2023-11-19T20:55:12.994Z,14.50
2023-11-19T20:57:41.366Z,14.50
2023-11-19T21:00:14.228Z,14.50
2023-11-19T21:02:42.711Z,14.40
2023-11-19T21:05:10.704Z,14.40
2023-11-19T21:07:38.767Z,14.40
2023-11-19T21:10:07.260Z,14.30
2023-11-19T21:12:35.683Z,14.30
2023-11-19T21:15:04.718Z,14.30
2023-11-19T21:17:33.110Z,14.30
2023-11-19T21:20:01.763Z,14.20
2023-11-19T21:22:29.794Z,14.20
2023-11-19T21:24:58.067Z,14.20
2023-11-19T21:27:28.485Z,14.20
2023-11-19T21:29:58.600Z,14.20
2023-11-19T21:32:27.585Z,14.10
2023-11-19T21:34:55.537Z,14.10
2023-11-19T21:37:23.637Z,14.00
2023-11-19T21:39:51.460Z,14.00
2023-11-19T21:42:19.590Z,14.00
2023-11-19T21:44:48.254Z,13.90
2023-11-19T21:47:17.473Z,13.90
2023-11-19T21:49:46.041Z,13.90
2023-11-19T21:52:14.172Z,13.90
2023-11-19T21:54:41.932Z,13.90
2023-11-19T21:57:09.954Z,13.80
2023-11-19T21:59:37.944Z,13.80
2023-11-19T22:02:06.074Z,13.80
2023-11-19T22:04:37.058Z,13.80
2023-11-19T22:07:05.449Z,13.80
2023-11-19T22:09:33.445Z,13.80
2023-11-19T22:12:01.590Z,13.80
2023-11-19T22:14:30.378Z,13.80
2023-11-19T22:16:58.314Z,13.80
2023-11-19T22:19:26.357Z,13.90
2023-11-19T22:21:54.300Z,13.90
2023-11-19T22:24:22.106Z,13.90
2023-11-19T22:26:50.513Z,14.00
2023-11-19T22:29:18.453Z,14.00
2023-11-19T22:31:47.570Z,14.00
2023-11-19T22:34:15.509Z,14.00
2023-11-19T22:36:44.574Z,14.00
2023-11-19T22:39:13.938Z,14.00
2023-11-19T22:41:42.504Z,14.00
2023-11-19T22:44:10.836Z,13.90
2023-11-19T22:46:39.061Z,13.90
2023-11-19T22:49:07.085Z,13.90
2023-11-19T22:51:35.282Z,13.90
2023-11-19T22:54:05.155Z,13.90
2023-11-19T22:56:33.116Z,13.90
2023-11-19T22:59:06.111Z,13.90
2023-11-19T23:01:34.296Z,14.00
2023-11-19T23:04:02.352Z,13.90
2023-11-19T23:06:30.590Z,13.90
2023-11-19T23:08:58.744Z,13.90
2023-11-19T23:11:26.657Z,13.90
2023-11-19T23:13:54.598Z,13.80
2023-11-19T23:16:24.671Z,13.70
2023-11-19T23:18:53.536Z,13.70
2023-11-19T23:21:21.550Z,13.70
2023-11-19T23:23:49.588Z,13.60
2023-11-19T23:26:17.856Z,13.60
2023-11-19T23:28:47.567Z,13.60
2023-11-19T23:31:17.019Z,13.50
2023-11-19T23:33:44.939Z,13.50
2023-11-19T23:36:12.940Z,13.40
2023-11-19T23:38:40.697Z,13.40
2023-11-19T23:41:09.463Z,13.40
2023-11-19T23:43:37.474Z,13.40
2023-11-19T23:46:07.285Z,13.40
2023-11-19T23:48:35.354Z,13.40
2023-11-19T23:51:03.452Z,13.40
2023-11-19T23:53:31.533Z,13.30
2023-11-19T23:55:59.753Z,13.40
2023-11-19T23:58:27.663Z,13.30
